sensor_id;sensor_type;location;lat;lon;timestamp;temperature;humidity
39525;DHT22;25203;50.754;6.978;2022-10-14T00:00:42;12.80;99.90
39525;DHT22;25203;50.754;6.978;2022-10-14T00:02:43;12.80;99.90
39525;DHT22;25203;50.754;6.978;2022-10-14T00:04:44;12.90;99.90
39525;DHT22;25203;50.754;6.978;2022-10-14T00:06:44;12.90;99.90
39525;DHT22;25203;50.754;6.978;2022-10-14T00:08:45;12.90;99.90
39525;DHT22;25203;50.754;6.978;2022-10-14T00:10:49;12.90;99.90
39525;DHT22;25203;50.754;6.978;2022-10-14T00:12:49;12.90;99.90
39525;DHT22;25203;50.754;6.978;2022-10-14T00:14:50;12.80;99.90
39525;DHT22;25203;50.754;6.978;2022-10-14T00:16:53;12.80;99.90
39525;DHT22;25203;50.754;6.978;2022-10-14T00:18:54;12.80;99.90
39525;DHT22;25203;50.754;6.978;2022-10-14T00:20:56;12.80;99.90
39525;DHT22;25203;50.754;6.978;2022-10-14T00:22:57;12.70;99.90
39525;DHT22;25203;50.754;6.978;2022-10-14T00:24:58;12.70;99.90
39525;DHT22;25203;50.754;6.978;2022-10-14T00:26:58;12.70;99.90
39525;DHT22;25203;50.754;6.978;2022-10-14T00:29:00;12.70;99.90
39525;DHT22;25203;50.754;6.978;2022-10-14T00:31:01;12.80;99.90
39525;DHT22;25203;50.754;6.978;2022-10-14T00:33:02;12.80;99.90
39525;DHT22;25203;50.754;6.978;2022-10-14T00:35:02;12.80;99.90
39525;DHT22;25203;50.754;6.978;2022-10-14T00:37:03;12.80;99.90
39525;DHT22;25203;50.754;6.978;2022-10-14T00:39:04;12.80;99.90
39525;DHT22;25203;50.754;6.978;2022-10-14T00:41:05;12.80;99.90
39525;DHT22;25203;50.754;6.978;2022-10-14T00:43:10;12.80;99.90
39525;DHT22;25203;50.754;6.978;2022-10-14T00:45:23;12.70;99.90
39525;DHT22;25203;50.754;6.978;2022-10-14T00:47:23;12.70;99.90
39525;DHT22;25203;50.754;6.978;2022-10-14T00:49:28;12.70;99.90
39525;DHT22;25203;50.754;6.978;2022-10-14T00:51:29;12.80;99.90
39525;DHT22;25203;50.754;6.978;2022-10-14T00:53:30;12.80;99.90
39525;DHT22;25203;50.754;6.978;2022-10-14T00:55:31;12.80;99.90
39525;DHT22;25203;50.754;6.978;2022-10-14T00:57:32;12.90;99.90
39525;DHT22;25203;50.754;6.978;2022-10-14T00:59:33;12.90;99.90
39525;DHT22;25203;50.754;6.978;2022-10-14T01:01:34;12.90;99.90
39525;DHT22;25203;50.754;6.978;2022-10-14T01:03:34;12.90;99.90
39525;DHT22;25203;50.754;6.978;2022-10-14T01:05:45;13.00;99.90
39525;DHT22;25203;50.754;6.978;2022-10-14T01:07:53;13.00;99.90
39525;DHT22;25203;50.754;6.978;2022-10-14T01:10:15;13.00;99.90
39525;DHT22;25203;50.754;6.978;2022-10-14T01:14:32;13.00;99.90
39525;DHT22;25203;50.754;6.978;2022-10-14T01:21:07;13.10;99.90
39525;DHT22;25203;50.754;6.978;2022-10-14T01:30:32;13.20;99.90
39525;DHT22;25203;50.754;6.978;2022-10-14T01:32:44;13.20;99.90
39525;DHT22;25203;50.754;6.978;2022-10-14T01:34:54;13.20;99.90
39525;DHT22;25203;50.754;6.978;2022-10-14T01:37:01;13.30;99.90
39525;DHT22;25203;50.754;6.978;2022-10-14T01:39:35;13.30;99.90
39525;DHT22;25203;50.754;6.978;2022-10-14T01:41:54;13.30;99.90
39525;DHT22;25203;50.754;6.978;2022-10-14T01:44:01;13.30;99.90
39525;DHT22;25203;50.754;6.978;2022-10-14T01:46:05;13.30;99.90
39525;DHT22;25203;50.754;6.978;2022-10-14T01:48:06;13.30;99.90
39525;DHT22;25203;50.754;6.978;2022-10-14T01:50:14;13.20;99.90
39525;DHT22;25203;50.754;6.978;2022-10-14T01:52:21;13.20;99.90
39525;DHT22;25203;50.754;6.978;2022-10-14T01:54:27;13.20;99.90
39525;DHT22;25203;50.754;6.978;2022-10-14T01:56:31;13.20;99.90
39525;DHT22;25203;50.754;6.978;2022-10-14T01:58:34;13.20;99.90
39525;DHT22;25203;50.754;6.978;2022-10-14T02:00:35;13.30;99.90
39525;DHT22;25203;50.754;6.978;2022-10-14T02:02:37;13.30;99.90
39525;DHT22;25203;50.754;6.978;2022-10-14T02:04:38;13.20;99.90
39525;DHT22;25203;50.754;6.978;2022-10-14T02:06:42;13.20;99.90
39525;DHT22;25203;50.754;6.978;2022-10-14T02:11:15;13.30;99.90
39525;DHT22;25203;50.754;6.978;2022-10-14T02:18:13;13.50;99.90
39525;DHT22;25203;50.754;6.978;2022-10-14T02:20:55;13.50;99.90
39525;DHT22;25203;50.754;6.978;2022-10-14T02:23:14;13.50;99.90
39525;DHT22;25203;50.754;6.978;2022-10-14T02:25:27;13.50;99.90
39525;DHT22;25203;50.754;6.978;2022-10-14T02:27:28;13.50;99.90
39525;DHT22;25203;50.754;6.978;2022-10-14T02:29:31;13.50;99.90
39525;DHT22;25203;50.754;6.978;2022-10-14T02:31:34;13.50;99.90
39525;DHT22;25203;50.754;6.978;2022-10-14T02:33:42;13.50;99.90
39525;DHT22;25203;50.754;6.978;2022-10-14T02:35:44;13.50;99.90
39525;DHT22;25203;50.754;6.978;2022-10-14T02:37:47;13.50;99.90
39525;DHT22;25203;50.754;6.978;2022-10-14T02:40:04;13.40;99.90
39525;DHT22;25203;50.754;6.978;2022-10-14T02:42:07;13.40;99.90
39525;DHT22;25203;50.754;6.978;2022-10-14T02:44:08;13.30;99.90
39525;DHT22;25203;50.754;6.978;2022-10-14T02:46:09;13.30;99.90
39525;DHT22;25203;50.754;6.978;2022-10-14T02:48:11;13.20;99.90
39525;DHT22;25203;50.754;6.978;2022-10-14T02:50:11;13.20;99.90
39525;DHT22;25203;50.754;6.978;2022-10-14T02:52:12;13.10;99.90
39525;DHT22;25203;50.754;6.978;2022-10-14T02:57:10;13.10;99.90
39525;DHT22;25203;50.754;6.978;2022-10-14T02:59:11;13.10;99.90
39525;DHT22;25203;50.754;6.978;2022-10-14T03:01:11;13.10;99.90
39525;DHT22;25203;50.754;6.978;2022-10-14T03:03:12;13.20;99.90
39525;DHT22;25203;50.754;6.978;2022-10-14T03:05:13;13.20;99.90
39525;DHT22;25203;50.754;6.978;2022-10-14T03:07:13;13.30;99.90
39525;DHT22;25203;50.754;6.978;2022-10-14T03:09:14;13.30;99.90
39525;DHT22;25203;50.754;6.978;2022-10-14T03:11:15;13.30;99.90
39525;DHT22;25203;50.754;6.978;2022-10-14T03:13:15;13.40;99.90
39525;DHT22;25203;50.754;6.978;2022-10-14T03:15:16;13.40;99.90
39525;DHT22;25203;50.754;6.978;2022-10-14T03:17:17;13.30;99.90
39525;DHT22;25203;50.754;6.978;2022-10-14T03:19:18;13.30;99.90
39525;DHT22;25203;50.754;6.978;2022-10-14T03:21:19;13.40;99.90
39525;DHT22;25203;50.754;6.978;2022-10-14T03:23:20;13.40;99.90
39525;DHT22;25203;50.754;6.978;2022-10-14T03:25:20;13.40;99.90
39525;DHT22;25203;50.754;6.978;2022-10-14T03:27:21;13.50;99.90
39525;DHT22;25203;50.754;6.978;2022-10-14T03:29:22;13.50;99.90
39525;DHT22;25203;50.754;6.978;2022-10-14T03:31:22;13.50;99.90
39525;DHT22;25203;50.754;6.978;2022-10-14T03:33:23;13.50;99.90
39525;DHT22;25203;50.754;6.978;2022-10-14T03:35:24;13.40;99.90
39525;DHT22;25203;50.754;6.978;2022-10-14T03:37:24;13.50;99.90
39525;DHT22;25203;50.754;6.978;2022-10-14T03:39:25;13.50;99.90
39525;DHT22;25203;50.754;6.978;2022-10-14T03:41:26;13.60;99.90
39525;DHT22;25203;50.754;6.978;2022-10-14T03:43:26;13.60;99.90
39525;DHT22;25203;50.754;6.978;2022-10-14T03:45:27;13.60;99.90
39525;DHT22;25203;50.754;6.978;2022-10-14T03:47:28;13.60;99.90
39525;DHT22;25203;50.754;6.978;2022-10-14T03:49:29;13.60;99.90
39525;DHT22;25203;50.754;6.978;2022-10-14T03:51:29;13.70;99.90
39525;DHT22;25203;50.754;6.978;2022-10-14T03:53:30;13.70;99.90
39525;DHT22;25203;50.754;6.978;2022-10-14T03:55:31;13.70;99.90
39525;DHT22;25203;50.754;6.978;2022-10-14T03:57:31;13.70;99.90
39525;DHT22;25203;50.754;6.978;2022-10-14T03:59:32;13.70;99.90
39525;DHT22;25203;50.754;6.978;2022-10-14T04:01:33;13.70;99.90
39525;DHT22;25203;50.754;6.978;2022-10-14T04:03:33;13.70;99.90
39525;DHT22;25203;50.754;6.978;2022-10-14T04:05:34;13.70;99.90
39525;DHT22;25203;50.754;6.978;2022-10-14T04:07:35;13.70;99.90
39525;DHT22;25203;50.754;6.978;2022-10-14T04:09:35;13.70;99.90
39525;DHT22;25203;50.754;6.978;2022-10-14T04:11:36;13.70;99.90
39525;DHT22;25203;50.754;6.978;2022-10-14T04:13:36;13.70;99.90
39525;DHT22;25203;50.754;6.978;2022-10-14T04:15:37;13.60;99.90
39525;DHT22;25203;50.754;6.978;2022-10-14T04:17:38;13.60;99.90
39525;DHT22;25203;50.754;6.978;2022-10-14T04:19:38;13.60;99.90
39525;DHT22;25203;50.754;6.978;2022-10-14T04:21:39;13.60;99.90
39525;DHT22;25203;50.754;6.978;2022-10-14T04:23:39;13.60;99.90
39525;DHT22;25203;50.754;6.978;2022-10-14T04:25:40;13.60;99.90
39525;DHT22;25203;50.754;6.978;2022-10-14T04:27:41;13.60;99.90
39525;DHT22;25203;50.754;6.978;2022-10-14T04:29:41;13.60;99.90
39525;DHT22;25203;50.754;6.978;2022-10-14T04:31:42;13.60;99.90
39525;DHT22;25203;50.754;6.978;2022-10-14T04:33:43;13.60;99.90
39525;DHT22;25203;50.754;6.978;2022-10-14T04:35:43;13.50;99.90
39525;DHT22;25203;50.754;6.978;2022-10-14T04:37:44;13.50;99.90
39525;DHT22;25203;50.754;6.978;2022-10-14T04:39:44;13.50;99.90
39525;DHT22;25203;50.754;6.978;2022-10-14T04:41:45;13.50;99.90
39525;DHT22;25203;50.754;6.978;2022-10-14T04:43:46;13.40;99.90
39525;DHT22;25203;50.754;6.978;2022-10-14T04:45:46;13.50;99.90
39525;DHT22;25203;50.754;6.978;2022-10-14T04:47:47;13.40;99.90
39525;DHT22;25203;50.754;6.978;2022-10-14T04:49:48;13.40;99.90
39525;DHT22;25203;50.754;6.978;2022-10-14T04:51:49;13.50;99.90
39525;DHT22;25203;50.754;6.978;2022-10-14T04:53:49;13.50;99.90
39525;DHT22;25203;50.754;6.978;2022-10-14T04:55:50;13.50;99.90
39525;DHT22;25203;50.754;6.978;2022-10-14T04:57:51;13.50;99.90
39525;DHT22;25203;50.754;6.978;2022-10-14T04:59:51;13.50;99.90
39525;DHT22;25203;50.754;6.978;2022-10-14T05:01:52;13.50;99.90
39525;DHT22;25203;50.754;6.978;2022-10-14T05:03:53;13.50;99.90
39525;DHT22;25203;50.754;6.978;2022-10-14T05:05:54;13.50;99.90
39525;DHT22;25203;50.754;6.978;2022-10-14T05:07:55;13.50;99.90
39525;DHT22;25203;50.754;6.978;2022-10-14T05:09:56;13.50;99.90
39525;DHT22;25203;50.754;6.978;2022-10-14T05:11:56;13.50;99.90
39525;DHT22;25203;50.754;6.978;2022-10-14T05:13:57;13.40;99.90
39525;DHT22;25203;50.754;6.978;2022-10-14T05:15:58;13.40;99.90
39525;DHT22;25203;50.754;6.978;2022-10-14T05:17:59;13.30;99.90
39525;DHT22;25203;50.754;6.978;2022-10-14T05:19:59;13.30;99.90
39525;DHT22;25203;50.754;6.978;2022-10-14T05:22:00;13.20;99.90
39525;DHT22;25203;50.754;6.978;2022-10-14T05:24:01;13.10;99.90
39525;DHT22;25203;50.754;6.978;2022-10-14T05:26:01;13.10;99.90
39525;DHT22;25203;50.754;6.978;2022-10-14T05:28:03;13.10;99.90
39525;DHT22;25203;50.754;6.978;2022-10-14T05:30:03;13.10;99.90
39525;DHT22;25203;50.754;6.978;2022-10-14T05:32:04;13.00;99.90
39525;DHT22;25203;50.754;6.978;2022-10-14T05:34:05;12.90;99.90
39525;DHT22;25203;50.754;6.978;2022-10-14T05:36:06;12.80;99.90
39525;DHT22;25203;50.754;6.978;2022-10-14T05:38:07;12.80;99.90
39525;DHT22;25203;50.754;6.978;2022-10-14T05:40:08;12.80;99.90
39525;DHT22;25203;50.754;6.978;2022-10-14T05:42:09;12.70;99.90
39525;DHT22;25203;50.754;6.978;2022-10-14T05:44:10;12.70;99.90
39525;DHT22;25203;50.754;6.978;2022-10-14T05:46:11;12.70;99.90
39525;DHT22;25203;50.754;6.978;2022-10-14T05:48:11;12.60;99.90
39525;DHT22;25203;50.754;6.978;2022-10-14T05:50:12;12.60;99.90
39525;DHT22;25203;50.754;6.978;2022-10-14T05:52:14;12.60;99.90
39525;DHT22;25203;50.754;6.978;2022-10-14T05:54:14;12.60;99.90
39525;DHT22;25203;50.754;6.978;2022-10-14T05:56:15;12.60;99.90
39525;DHT22;25203;50.754;6.978;2022-10-14T05:58:15;12.60;99.90
39525;DHT22;25203;50.754;6.978;2022-10-14T06:00:16;12.60;99.90
39525;DHT22;25203;50.754;6.978;2022-10-14T06:02:19;12.60;99.90
39525;DHT22;25203;50.754;6.978;2022-10-14T06:04:20;12.60;99.90
39525;DHT22;25203;50.754;6.978;2022-10-14T06:06:21;12.60;99.90
39525;DHT22;25203;50.754;6.978;2022-10-14T06:08:23;12.60;99.90
39525;DHT22;25203;50.754;6.978;2022-10-14T06:10:24;12.60;99.90
39525;DHT22;25203;50.754;6.978;2022-10-14T06:12:24;12.60;99.90
39525;DHT22;25203;50.754;6.978;2022-10-14T06:14:25;12.60;99.90
39525;DHT22;25203;50.754;6.978;2022-10-14T06:16:26;12.60;99.90
39525;DHT22;25203;50.754;6.978;2022-10-14T06:18:26;12.60;99.90
39525;DHT22;25203;50.754;6.978;2022-10-14T06:20:27;12.60;99.90
39525;DHT22;25203;50.754;6.978;2022-10-14T06:22:28;12.70;99.90
39525;DHT22;25203;50.754;6.978;2022-10-14T06:24:28;12.70;99.90
39525;DHT22;25203;50.754;6.978;2022-10-14T06:26:29;12.70;99.90
39525;DHT22;25203;50.754;6.978;2022-10-14T06:28:30;12.70;99.90
39525;DHT22;25203;50.754;6.978;2022-10-14T06:30:31;12.70;99.90
39525;DHT22;25203;50.754;6.978;2022-10-14T06:32:32;12.70;99.90
39525;DHT22;25203;50.754;6.978;2022-10-14T06:34:33;12.70;99.90
39525;DHT22;25203;50.754;6.978;2022-10-14T06:36:35;12.70;99.90
39525;DHT22;25203;50.754;6.978;2022-10-14T06:38:36;12.70;99.90
39525;DHT22;25203;50.754;6.978;2022-10-14T06:40:37;12.60;99.90
39525;DHT22;25203;50.754;6.978;2022-10-14T06:42:37;12.60;99.90
39525;DHT22;25203;50.754;6.978;2022-10-14T06:44:38;12.60;99.90
39525;DHT22;25203;50.754;6.978;2022-10-14T06:46:39;12.60;99.90
39525;DHT22;25203;50.754;6.978;2022-10-14T06:48:40;12.60;99.90
39525;DHT22;25203;50.754;6.978;2022-10-14T06:50:41;12.60;99.90
39525;DHT22;25203;50.754;6.978;2022-10-14T06:52:44;12.60;99.90
39525;DHT22;25203;50.754;6.978;2022-10-14T06:54:45;12.60;99.90
39525;DHT22;25203;50.754;6.978;2022-10-14T06:56:45;12.60;99.90
39525;DHT22;25203;50.754;6.978;2022-10-14T06:58:46;12.60;99.90
39525;DHT22;25203;50.754;6.978;2022-10-14T07:00:47;12.60;99.90
39525;DHT22;25203;50.754;6.978;2022-10-14T07:02:47;12.70;99.90
39525;DHT22;25203;50.754;6.978;2022-10-14T07:04:48;12.70;99.90
39525;DHT22;25203;50.754;6.978;2022-10-14T07:06:48;12.70;99.90
39525;DHT22;25203;50.754;6.978;2022-10-14T07:08:49;12.70;99.90
39525;DHT22;25203;50.754;6.978;2022-10-14T07:10:50;12.70;99.90
39525;DHT22;25203;50.754;6.978;2022-10-14T07:12:53;12.80;99.90
39525;DHT22;25203;50.754;6.978;2022-10-14T07:14:55;12.70;99.90
39525;DHT22;25203;50.754;6.978;2022-10-14T07:16:56;12.80;99.90
39525;DHT22;25203;50.754;6.978;2022-10-14T07:18:57;12.80;99.90
39525;DHT22;25203;50.754;6.978;2022-10-14T07:21:04;12.80;99.90
39525;DHT22;25203;50.754;6.978;2022-10-14T07:23:14;12.80;99.90
39525;DHT22;25203;50.754;6.978;2022-10-14T07:25:15;12.90;99.90
39525;DHT22;25203;50.754;6.978;2022-10-14T07:27:16;12.90;99.90
39525;DHT22;25203;50.754;6.978;2022-10-14T07:29:17;12.90;99.90
39525;DHT22;25203;50.754;6.978;2022-10-14T07:31:18;13.00;99.90
39525;DHT22;25203;50.754;6.978;2022-10-14T07:33:19;13.00;99.90
39525;DHT22;25203;50.754;6.978;2022-10-14T07:35:19;13.00;99.90
39525;DHT22;25203;50.754;6.978;2022-10-14T07:37:20;13.10;99.90
39525;DHT22;25203;50.754;6.978;2022-10-14T07:39:21;13.10;99.90
39525;DHT22;25203;50.754;6.978;2022-10-14T07:41:23;13.10;99.90
39525;DHT22;25203;50.754;6.978;2022-10-14T07:43:24;13.20;99.90
39525;DHT22;25203;50.754;6.978;2022-10-14T07:45:25;13.20;99.90
39525;DHT22;25203;50.754;6.978;2022-10-14T07:47:26;13.20;99.90
39525;DHT22;25203;50.754;6.978;2022-10-14T07:49:27;13.30;99.90
39525;DHT22;25203;50.754;6.978;2022-10-14T07:51:28;13.30;99.90
39525;DHT22;25203;50.754;6.978;2022-10-14T07:53:29;13.30;99.90
39525;DHT22;25203;50.754;6.978;2022-10-14T07:55:29;13.40;99.90
39525;DHT22;25203;50.754;6.978;2022-10-14T07:57:30;13.40;99.90
39525;DHT22;25203;50.754;6.978;2022-10-14T07:59:31;13.40;99.90
39525;DHT22;25203;50.754;6.978;2022-10-14T08:01:32;13.50;99.90
39525;DHT22;25203;50.754;6.978;2022-10-14T08:03:32;13.50;99.90
39525;DHT22;25203;50.754;6.978;2022-10-14T08:05:33;13.50;99.90
39525;DHT22;25203;50.754;6.978;2022-10-14T08:07:34;13.50;99.90
39525;DHT22;25203;50.754;6.978;2022-10-14T08:09:34;13.50;99.90
39525;DHT22;25203;50.754;6.978;2022-10-14T08:11:36;13.50;99.90
39525;DHT22;25203;50.754;6.978;2022-10-14T08:13:37;13.60;99.90
39525;DHT22;25203;50.754;6.978;2022-10-14T08:15:39;13.60;99.90
39525;DHT22;25203;50.754;6.978;2022-10-14T08:17:40;13.70;99.90
39525;DHT22;25203;50.754;6.978;2022-10-14T08:19:41;13.80;99.90
39525;DHT22;25203;50.754;6.978;2022-10-14T08:21:42;13.80;99.90
39525;DHT22;25203;50.754;6.978;2022-10-14T08:23:43;13.80;99.90
39525;DHT22;25203;50.754;6.978;2022-10-14T08:25:46;13.90;99.90
39525;DHT22;25203;50.754;6.978;2022-10-14T08:27:49;13.90;99.90
39525;DHT22;25203;50.754;6.978;2022-10-14T08:29:50;13.90;99.90
39525;DHT22;25203;50.754;6.978;2022-10-14T08:31:51;13.90;99.90
39525;DHT22;25203;50.754;6.978;2022-10-14T08:33:53;13.90;99.90
39525;DHT22;25203;50.754;6.978;2022-10-14T08:35:54;14.00;99.90
39525;DHT22;25203;50.754;6.978;2022-10-14T08:37:59;14.00;99.90
39525;DHT22;25203;50.754;6.978;2022-10-14T08:40:00;14.10;99.90
39525;DHT22;25203;50.754;6.978;2022-10-14T08:44:48;14.30;99.90
39525;DHT22;25203;50.754;6.978;2022-10-14T08:46:58;14.30;99.90
39525;DHT22;25203;50.754;6.978;2022-10-14T08:51:17;14.40;99.90
39525;DHT22;25203;50.754;6.978;2022-10-14T08:53:27;14.50;99.90
39525;DHT22;25203;50.754;6.978;2022-10-14T08:55:36;14.50;99.90
39525;DHT22;25203;50.754;6.978;2022-10-14T08:57:46;14.50;99.90
39525;DHT22;25203;50.754;6.978;2022-10-14T08:59:47;14.60;99.90
39525;DHT22;25203;50.754;6.978;2022-10-14T09:02:01;14.50;99.90
39525;DHT22;25203;50.754;6.978;2022-10-14T09:04:05;14.60;99.90
39525;DHT22;25203;50.754;6.978;2022-10-14T09:06:32;14.70;99.90
39525;DHT22;25203;50.754;6.978;2022-10-14T09:08:38;14.70;99.90
39525;DHT22;25203;50.754;6.978;2022-10-14T09:10:42;14.70;99.90
39525;DHT22;25203;50.754;6.978;2022-10-14T09:12:44;14.70;99.90
39525;DHT22;25203;50.754;6.978;2022-10-14T09:17:12;14.70;99.90
39525;DHT22;25203;50.754;6.978;2022-10-14T09:19:27;14.70;99.90
39525;DHT22;25203;50.754;6.978;2022-10-14T09:21:38;14.70;99.90
39525;DHT22;25203;50.754;6.978;2022-10-14T09:23:42;14.80;99.90
39525;DHT22;25203;50.754;6.978;2022-10-14T09:25:57;14.80;99.90
39525;DHT22;25203;50.754;6.978;2022-10-14T09:27:58;14.80;99.90
39525;DHT22;25203;50.754;6.978;2022-10-14T09:30:00;14.80;99.90
39525;DHT22;25203;50.754;6.978;2022-10-14T09:32:04;14.80;99.90
39525;DHT22;25203;50.754;6.978;2022-10-14T09:34:20;14.80;99.90
39525;DHT22;25203;50.754;6.978;2022-10-14T09:36:22;14.80;99.90
39525;DHT22;25203;50.754;6.978;2022-10-14T09:38:24;14.80;99.90
39525;DHT22;25203;50.754;6.978;2022-10-14T09:40:36;14.90;99.90
39525;DHT22;25203;50.754;6.978;2022-10-14T09:43:00;14.90;99.90
39525;DHT22;25203;50.754;6.978;2022-10-14T09:45:14;15.00;99.90
39525;DHT22;25203;50.754;6.978;2022-10-14T09:47:14;15.00;99.90
39525;DHT22;25203;50.754;6.978;2022-10-14T09:49:24;15.00;99.90
39525;DHT22;25203;50.754;6.978;2022-10-14T09:51:29;15.00;99.90
39525;DHT22;25203;50.754;6.978;2022-10-14T09:53:56;15.10;99.90
39525;DHT22;25203;50.754;6.978;2022-10-14T09:56:03;15.10;99.90
39525;DHT22;25203;50.754;6.978;2022-10-14T09:58:12;15.10;99.90
39525;DHT22;25203;50.754;6.978;2022-10-14T10:00:26;15.10;99.90
39525;DHT22;25203;50.754;6.978;2022-10-14T10:02:41;15.10;99.90
39525;DHT22;25203;50.754;6.978;2022-10-14T10:04:46;15.00;99.90
39525;DHT22;25203;50.754;6.978;2022-10-14T10:06:52;15.10;99.90
39525;DHT22;25203;50.754;6.978;2022-10-14T10:08:55;15.10;99.90
39525;DHT22;25203;50.754;6.978;2022-10-14T10:11:02;15.10;99.90
39525;DHT22;25203;50.754;6.978;2022-10-14T10:13:03;15.00;99.90
39525;DHT22;25203;50.754;6.978;2022-10-14T10:15:19;14.90;99.90
39525;DHT22;25203;50.754;6.978;2022-10-14T10:17:23;14.80;99.90
39525;DHT22;25203;50.754;6.978;2022-10-14T10:19:34;14.80;99.90
39525;DHT22;25203;50.754;6.978;2022-10-14T10:21:35;14.70;99.90
39525;DHT22;25203;50.754;6.978;2022-10-14T10:23:36;14.70;99.90
39525;DHT22;25203;50.754;6.978;2022-10-14T10:25:37;14.80;99.90
39525;DHT22;25203;50.754;6.978;2022-10-14T10:27:46;14.70;99.90
39525;DHT22;25203;50.754;6.978;2022-10-14T10:29:47;14.70;99.90
39525;DHT22;25203;50.754;6.978;2022-10-14T10:32:02;14.70;99.90
39525;DHT22;25203;50.754;6.978;2022-10-14T10:36:52;14.70;99.90
39525;DHT22;25203;50.754;6.978;2022-10-14T10:41:24;14.70;99.90
39525;DHT22;25203;50.754;6.978;2022-10-14T10:46:19;14.60;99.90
39525;DHT22;25203;50.754;6.978;2022-10-14T10:50:50;14.50;99.90
39525;DHT22;25203;50.754;6.978;2022-10-14T10:55:17;14.60;99.90
39525;DHT22;25203;50.754;6.978;2022-10-14T10:57:40;14.60;99.90
39525;DHT22;25203;50.754;6.978;2022-10-14T11:04:28;14.70;99.90
39525;DHT22;25203;50.754;6.978;2022-10-14T11:09:04;14.80;99.90
39525;DHT22;25203;50.754;6.978;2022-10-14T11:13:55;14.80;99.90
39525;DHT22;25203;50.754;6.978;2022-10-14T11:18:18;14.80;99.90
39525;DHT22;25203;50.754;6.978;2022-10-14T11:25:54;14.80;99.90
39525;DHT22;25203;50.754;6.978;2022-10-14T11:35:18;14.60;99.90
39525;DHT22;25203;50.754;6.978;2022-10-14T11:39:55;14.50;99.90
39525;DHT22;25203;50.754;6.978;2022-10-14T11:42:07;14.50;99.90
39525;DHT22;25203;50.754;6.978;2022-10-14T11:46:20;14.50;99.90
39525;DHT22;25203;50.754;6.978;2022-10-14T11:50:40;14.50;99.90
39525;DHT22;25203;50.754;6.978;2022-10-14T11:55:15;14.60;99.90
39525;DHT22;25203;50.754;6.978;2022-10-14T12:02:33;14.70;99.90
39525;DHT22;25203;50.754;6.978;2022-10-14T12:04:36;14.80;99.90
39525;DHT22;25203;50.754;6.978;2022-10-14T12:06:54;14.80;99.90
39525;DHT22;25203;50.754;6.978;2022-10-14T12:13:24;14.80;99.90
39525;DHT22;25203;50.754;6.978;2022-10-14T12:15:27;14.80;99.90
39525;DHT22;25203;50.754;6.978;2022-10-14T12:17:37;14.70;99.90
39525;DHT22;25203;50.754;6.978;2022-10-14T12:19:42;14.70;99.90
39525;DHT22;25203;50.754;6.978;2022-10-14T12:24:13;14.70;99.90
39525;DHT22;25203;50.754;6.978;2022-10-14T12:28:24;14.70;99.90
39525;DHT22;25203;50.754;6.978;2022-10-14T12:30:39;14.80;99.90
39525;DHT22;25203;50.754;6.978;2022-10-14T12:33:05;14.80;99.90
39525;DHT22;25203;50.754;6.978;2022-10-14T12:37:49;14.80;99.90
39525;DHT22;25203;50.754;6.978;2022-10-14T12:39:51;14.90;99.90
39525;DHT22;25203;50.754;6.978;2022-10-14T12:42:03;14.80;99.90
39525;DHT22;25203;50.754;6.978;2022-10-14T12:44:11;14.90;99.90
39525;DHT22;25203;50.754;6.978;2022-10-14T12:46:14;14.80;99.90
39525;DHT22;25203;50.754;6.978;2022-10-14T12:48:35;14.80;99.90
39525;DHT22;25203;50.754;6.978;2022-10-14T12:50:37;14.90;99.90
39525;DHT22;25203;50.754;6.978;2022-10-14T12:52:39;14.90;99.90
39525;DHT22;25203;50.754;6.978;2022-10-14T12:54:45;14.90;99.90
39525;DHT22;25203;50.754;6.978;2022-10-14T12:57:02;14.90;99.90
39525;DHT22;25203;50.754;6.978;2022-10-14T12:59:06;15.00;99.90
39525;DHT22;25203;50.754;6.978;2022-10-14T13:01:19;15.00;99.90
39525;DHT22;25203;50.754;6.978;2022-10-14T13:03:26;15.00;99.90
39525;DHT22;25203;50.754;6.978;2022-10-14T13:05:37;15.00;99.90
39525;DHT22;25203;50.754;6.978;2022-10-14T13:07:42;15.00;99.90
39525;DHT22;25203;50.754;6.978;2022-10-14T13:09:46;15.00;99.90
39525;DHT22;25203;50.754;6.978;2022-10-14T13:13:58;15.10;99.90
39525;DHT22;25203;50.754;6.978;2022-10-14T13:15:59;15.10;99.90
39525;DHT22;25203;50.754;6.978;2022-10-14T13:18:30;15.20;99.90
39525;DHT22;25203;50.754;6.978;2022-10-14T13:22:37;15.30;99.90
39525;DHT22;25203;50.754;6.978;2022-10-14T13:24:39;15.40;99.90
39525;DHT22;25203;50.754;6.978;2022-10-14T13:27:02;15.50;99.90
39525;DHT22;25203;50.754;6.978;2022-10-14T13:36:34;15.90;99.90
39525;DHT22;25203;50.754;6.978;2022-10-14T13:38:37;16.10;99.90
39525;DHT22;25203;50.754;6.978;2022-10-14T13:40:57;16.40;99.90
39525;DHT22;25203;50.754;6.978;2022-10-14T13:43:00;16.60;99.90
39525;DHT22;25203;50.754;6.978;2022-10-14T13:45:09;16.70;99.90
39525;DHT22;25203;50.754;6.978;2022-10-14T13:47:12;16.90;99.90
39525;DHT22;25203;50.754;6.978;2022-10-14T13:49:20;17.00;99.90
39525;DHT22;25203;50.754;6.978;2022-10-14T13:51:27;17.00;99.90
39525;DHT22;25203;50.754;6.978;2022-10-14T13:53:28;17.10;99.90
39525;DHT22;25203;50.754;6.978;2022-10-14T13:55:29;17.20;99.90
39525;DHT22;25203;50.754;6.978;2022-10-14T13:57:30;17.30;99.90
39525;DHT22;25203;50.754;6.978;2022-10-14T13:59:35;17.30;99.90
39525;DHT22;25203;50.754;6.978;2022-10-14T14:01:38;17.30;99.90
39525;DHT22;25203;50.754;6.978;2022-10-14T14:03:43;17.30;99.90
39525;DHT22;25203;50.754;6.978;2022-10-14T14:05:45;17.30;99.90
39525;DHT22;25203;50.754;6.978;2022-10-14T14:07:47;17.40;99.90
39525;DHT22;25203;50.754;6.978;2022-10-14T14:09:50;17.40;99.90
39525;DHT22;25203;50.754;6.978;2022-10-14T14:11:56;17.40;99.90
39525;DHT22;25203;50.754;6.978;2022-10-14T14:14:19;17.40;99.90
39525;DHT22;25203;50.754;6.978;2022-10-14T14:16:22;17.40;99.90
39525;DHT22;25203;50.754;6.978;2022-10-14T14:18:35;17.30;99.90
39525;DHT22;25203;50.754;6.978;2022-10-14T14:20:36;17.20;99.90
39525;DHT22;25203;50.754;6.978;2022-10-14T14:22:41;17.20;99.90
39525;DHT22;25203;50.754;6.978;2022-10-14T14:24:46;17.10;99.90
39525;DHT22;25203;50.754;6.978;2022-10-14T14:26:47;17.00;99.90
39525;DHT22;25203;50.754;6.978;2022-10-14T14:28:52;16.90;99.90
39525;DHT22;25203;50.754;6.978;2022-10-14T14:30:54;16.80;99.90
39525;DHT22;25203;50.754;6.978;2022-10-14T14:32:57;16.80;99.90
39525;DHT22;25203;50.754;6.978;2022-10-14T14:34:59;16.70;99.90
39525;DHT22;25203;50.754;6.978;2022-10-14T14:37:00;16.70;99.90
39525;DHT22;25203;50.754;6.978;2022-10-14T14:39:01;16.70;99.90
39525;DHT22;25203;50.754;6.978;2022-10-14T14:44:02;16.60;99.90
39525;DHT22;25203;50.754;6.978;2022-10-14T14:46:04;16.50;99.90
39525;DHT22;25203;50.754;6.978;2022-10-14T14:48:06;16.50;99.90
39525;DHT22;25203;50.754;6.978;2022-10-14T14:50:11;16.40;99.90
39525;DHT22;25203;50.754;6.978;2022-10-14T14:52:13;16.50;99.90